sensor_id;sensor_type;location;lat;lon;timestamp;P1;durP1;ratioP1;P2;durP2;ratioP2
37781;SDS011;23621;50.878;4.584;2022-09-20T00:03:35;1.20;;;1.05;;
37781;SDS011;23621;50.878;4.584;2022-09-20T00:06:04;1.17;;;1.08;;
37781;SDS011;23621;50.878;4.584;2022-09-20T00:08:32;1.30;;;1.20;;
37781;SDS011;23621;50.878;4.584;2022-09-20T00:11:00;2.15;;;1.10;;
37781;SDS011;23621;50.878;4.584;2022-09-20T00:13:36;1.95;;;1.10;;
37781;SDS011;23621;50.878;4.584;2022-09-20T00:16:08;1.27;;;1.10;;
37781;SDS011;23621;50.878;4.584;2022-09-20T00:18:40;4.10;;;1.10;;
37781;SDS011;23621;50.878;4.584;2022-09-20T00:21:10;3.17;;;1.30;;
37781;SDS011;23621;50.878;4.584;2022-09-20T00:23:45;1.98;;;1.30;;
37781;SDS011;23621;50.878;4.584;2022-09-20T00:26:12;2.35;;;1.40;;
37781;SDS011;23621;50.878;4.584;2022-09-20T00:28:42;2.40;;;1.10;;
37781;SDS011;23621;50.878;4.584;2022-09-20T00:31:12;2.00;;;1.38;;
37781;SDS011;23621;50.878;4.584;2022-09-20T00:33:40;1.90;;;1.30;;
37781;SDS011;23621;50.878;4.584;2022-09-20T00:36:25;1.30;;;1.20;;
37781;SDS011;23621;50.878;4.584;2022-09-20T00:38:56;3.00;;;1.27;;
37781;SDS011;23621;50.878;4.584;2022-09-20T00:41:24;3.00;;;1.13;;
37781;SDS011;23621;50.878;4.584;2022-09-20T00:43:52;1.25;;;1.13;;
37781;SDS011;23621;50.878;4.584;2022-09-20T00:46:36;2.33;;;1.30;;
37781;SDS011;23621;50.878;4.584;2022-09-20T00:49:27;1.35;;;0.90;;
37781;SDS011;23621;50.878;4.584;2022-09-20T00:51:54;1.00;;;0.90;;
37781;SDS011;23621;50.878;4.584;2022-09-20T00:54:26;3.03;;;1.00;;
37781;SDS011;23621;50.878;4.584;2022-09-20T00:56:56;2.70;;;1.20;;
37781;SDS011;23621;50.878;4.584;2022-09-20T00:59:41;2.85;;;1.10;;
37781;SDS011;23621;50.878;4.584;2022-09-20T01:02:13;3.15;;;1.23;;
37781;SDS011;23621;50.878;4.584;2022-09-20T01:04:44;1.70;;;1.10;;
37781;SDS011;23621;50.878;4.584;2022-09-20T01:07:13;1.75;;;1.15;;
37781;SDS011;23621;50.878;4.584;2022-09-20T01:09:43;1.15;;;1.15;;
37781;SDS011;23621;50.878;4.584;2022-09-20T01:12:15;1.52;;;1.27;;
37781;SDS011;23621;50.878;4.584;2022-09-20T01:14:45;1.75;;;1.27;;
37781;SDS011;23621;50.878;4.584;2022-09-20T01:17:14;2.13;;;1.30;;
37781;SDS011;23621;50.878;4.584;2022-09-20T01:20:01;3.00;;;1.42;;
37781;SDS011;23621;50.878;4.584;2022-09-20T01:28:57;1.90;;;1.42;;
37781;SDS011;23621;50.878;4.584;2022-09-20T01:31:45;3.38;;;1.40;;
37781;SDS011;23621;50.878;4.584;2022-09-20T01:37:05;1.42;;;1.30;;
37781;SDS011;23621;50.878;4.584;2022-09-20T01:40:02;2.22;;;1.38;;
37781;SDS011;23621;50.878;4.584;2022-09-20T01:42:40;2.78;;;1.75;;
37781;SDS011;23621;50.878;4.584;2022-09-20T01:45:27;3.17;;;1.35;;
37781;SDS011;23621;50.878;4.584;2022-09-20T01:50:49;1.75;;;1.38;;
37781;SDS011;23621;50.878;4.584;2022-09-20T02:02:31;2.03;;;1.50;;
37781;SDS011;23621;50.878;4.584;2022-09-20T02:05:33;2.33;;;1.58;;
37781;SDS011;23621;50.878;4.584;2022-09-20T02:27:30;3.13;;;1.70;;
37781;SDS011;23621;50.878;4.584;2022-09-20T02:30:22;2.40;;;1.63;;
37781;SDS011;23621;50.878;4.584;2022-09-20T02:33:19;3.17;;;1.75;;
37781;SDS011;23621;50.878;4.584;2022-09-20T02:47:24;2.72;;;2.15;;
37781;SDS011;23621;50.878;4.584;2022-09-20T03:00:54;2.15;;;1.80;;
37781;SDS011;23621;50.878;4.584;2022-09-20T03:11:55;2.35;;;1.60;;
37781;SDS011;23621;50.878;4.584;2022-09-20T03:14:35;3.03;;;1.65;;
37781;SDS011;23621;50.878;4.584;2022-09-20T03:17:11;2.35;;;1.85;;
37781;SDS011;23621;50.878;4.584;2022-09-20T03:19:59;2.10;;;1.90;;
37781;SDS011;23621;50.878;4.584;2022-09-20T03:31:04;2.30;;;1.85;;
37781;SDS011;23621;50.878;4.584;2022-09-20T03:39:10;4.18;;;1.92;;
37781;SDS011;23621;50.878;4.584;2022-09-20T03:58:47;2.92;;;1.98;;
37781;SDS011;23621;50.878;4.584;2022-09-20T04:07:14;2.90;;;1.65;;
37781;SDS011;23621;50.878;4.584;2022-09-20T04:18:46;4.47;;;1.70;;
37781;SDS011;23621;50.878;4.584;2022-09-20T04:21:42;1.90;;;1.75;;
37781;SDS011;23621;50.878;4.584;2022-09-20T04:24:18;2.42;;;2.22;;
37781;SDS011;23621;50.878;4.584;2022-09-20T04:26:56;4.13;;;2.22;;
37781;SDS011;23621;50.878;4.584;2022-09-20T04:32:24;3.55;;;2.40;;
37781;SDS011;23621;50.878;4.584;2022-09-20T04:35:11;2.47;;;2.05;;
37781;SDS011;23621;50.878;4.584;2022-09-20T04:38:18;4.20;;;1.83;;
37781;SDS011;23621;50.878;4.584;2022-09-20T04:49:28;2.67;;;1.92;;
37781;SDS011;23621;50.878;4.584;2022-09-20T04:52:31;2.83;;;2.08;;
37781;SDS011;23621;50.878;4.584;2022-09-20T05:03:51;3.90;;;2.50;;
37781;SDS011;23621;50.878;4.584;2022-09-20T05:11:53;4.35;;;3.05;;
37781;SDS011;23621;50.878;4.584;2022-09-20T05:28:25;6.53;;;3.90;;
37781;SDS011;23621;50.878;4.584;2022-09-20T05:31:08;3.30;;;3.00;;
37781;SDS011;23621;50.878;4.584;2022-09-20T05:39:28;5.53;;;3.38;;
37781;SDS011;23621;50.878;4.584;2022-09-20T05:42:41;4.00;;;3.00;;
37781;SDS011;23621;50.878;4.584;2022-09-20T05:47:59;4.65;;;3.08;;
37781;SDS011;23621;50.878;4.584;2022-09-20T05:50:46;3.30;;;3.00;;
37781;SDS011;23621;50.878;4.584;2022-09-20T05:54:06;3.67;;;3.30;;
37781;SDS011;23621;50.878;4.584;2022-09-20T06:00:08;5.40;;;3.20;;
37781;SDS011;23621;50.878;4.584;2022-09-20T06:02:50;3.75;;;3.13;;
37781;SDS011;23621;50.878;4.584;2022-09-20T06:14:12;4.30;;;2.95;;
37781;SDS011;23621;50.878;4.584;2022-09-20T06:17:14;4.85;;;2.92;;
37781;SDS011;23621;50.878;4.584;2022-09-20T06:22:32;3.08;;;2.75;;
37781;SDS011;23621;50.878;4.584;2022-09-20T06:27:36;4.10;;;2.72;;
37781;SDS011;23621;50.878;4.584;2022-09-20T06:30:15;4.38;;;2.88;;
37781;SDS011;23621;50.878;4.584;2022-09-20T06:32:57;5.57;;;2.97;;
37781;SDS011;23621;50.878;4.584;2022-09-20T06:35:28;5.45;;;3.08;;
37781;SDS011;23621;50.878;4.584;2022-09-20T06:38:16;6.07;;;3.03;;
37781;SDS011;23621;50.878;4.584;2022-09-20T06:41:19;7.88;;;3.45;;
37781;SDS011;23621;50.878;4.584;2022-09-20T06:43:53;4.45;;;3.33;;
37781;SDS011;23621;50.878;4.584;2022-09-20T06:46:27;3.88;;;2.95;;
37781;SDS011;23621;50.878;4.584;2022-09-20T06:48:56;3.50;;;3.20;;
37781;SDS011;23621;50.878;4.584;2022-09-20T06:51:24;4.95;;;2.90;;
37781;SDS011;23621;50.878;4.584;2022-09-20T06:53:52;5.55;;;3.00;;
37781;SDS011;23621;50.878;4.584;2022-09-20T06:56:21;3.88;;;3.08;;
37781;SDS011;23621;50.878;4.584;2022-09-20T06:58:52;5.28;;;3.13;;
37781;SDS011;23621;50.878;4.584;2022-09-20T07:01:19;4.45;;;3.10;;
37781;SDS011;23621;50.878;4.584;2022-09-20T07:03:55;4.88;;;3.50;;
37781;SDS011;23621;50.878;4.584;2022-09-20T07:06:22;4.60;;;2.92;;
37781;SDS011;23621;50.878;4.584;2022-09-20T07:08:49;3.78;;;3.47;;
37781;SDS011;23621;50.878;4.584;2022-09-20T07:11:18;5.30;;;3.38;;
37781;SDS011;23621;50.878;4.584;2022-09-20T07:13:48;6.00;;;3.60;;
37781;SDS011;23621;50.878;4.584;2022-09-20T07:16:17;5.18;;;3.42;;
37781;SDS011;23621;50.878;4.584;2022-09-20T07:18:44;6.45;;;3.38;;
37781;SDS011;23621;50.878;4.584;2022-09-20T07:21:12;7.90;;;3.08;;
37781;SDS011;23621;50.878;4.584;2022-09-20T07:23:40;4.20;;;3.28;;
37781;SDS011;23621;50.878;4.584;2022-09-20T07:26:15;3.88;;;3.25;;
37781;SDS011;23621;50.878;4.584;2022-09-20T07:28:42;3.45;;;3.10;;
37781;SDS011;23621;50.878;4.584;2022-09-20T07:31:09;6.88;;;2.88;;
37781;SDS011;23621;50.878;4.584;2022-09-20T07:33:36;4.82;;;3.00;;
37781;SDS011;23621;50.878;4.584;2022-09-20T07:36:03;4.40;;;3.10;;
37781;SDS011;23621;50.878;4.584;2022-09-20T07:38:30;4.43;;;3.05;;
37781;SDS011;23621;50.878;4.584;2022-09-20T07:40:57;3.95;;;3.22;;
37781;SDS011;23621;50.878;4.584;2022-09-20T07:43:28;3.15;;;2.92;;
37781;SDS011;23621;50.878;4.584;2022-09-20T07:45:56;4.97;;;3.05;;
37781;SDS011;23621;50.878;4.584;2022-09-20T07:48:31;5.85;;;3.33;;
37781;SDS011;23621;50.878;4.584;2022-09-20T07:51:04;3.90;;;2.80;;
37781;SDS011;23621;50.878;4.584;2022-09-20T07:53:34;8.23;;;3.20;;
37781;SDS011;23621;50.878;4.584;2022-09-20T07:56:03;2.90;;;2.58;;
37781;SDS011;23621;50.878;4.584;2022-09-20T07:58:41;3.33;;;3.03;;
37781;SDS011;23621;50.878;4.584;2022-09-20T08:01:09;5.88;;;3.22;;
37781;SDS011;23621;50.878;4.584;2022-09-20T08:03:38;6.20;;;2.90;;
37781;SDS011;23621;50.878;4.584;2022-09-20T08:06:06;3.30;;;3.00;;
37781;SDS011;23621;50.878;4.584;2022-09-20T08:08:35;3.20;;;2.55;;
37781;SDS011;23621;50.878;4.584;2022-09-20T08:11:04;3.40;;;2.63;;
37781;SDS011;23621;50.878;4.584;2022-09-20T08:13:36;7.00;;;3.15;;
37781;SDS011;23621;50.878;4.584;2022-09-20T08:16:24;3.20;;;2.60;;
37781;SDS011;23621;50.878;4.584;2022-09-20T08:18:56;3.97;;;2.85;;
37781;SDS011;23621;50.878;4.584;2022-09-20T08:21:25;3.03;;;2.67;;
37781;SDS011;23621;50.878;4.584;2022-09-20T08:23:56;4.20;;;2.92;;
37781;SDS011;23621;50.878;4.584;2022-09-20T08:26:24;4.32;;;3.10;;
37781;SDS011;23621;50.878;4.584;2022-09-20T08:28:53;4.22;;;2.63;;
37781;SDS011;23621;50.878;4.584;2022-09-20T08:31:23;3.78;;;3.00;;
37781;SDS011;23621;50.878;4.584;2022-09-20T08:33:52;5.82;;;2.97;;
37781;SDS011;23621;50.878;4.584;2022-09-20T08:36:23;6.43;;;3.13;;
37781;SDS011;23621;50.878;4.584;2022-09-20T08:38:51;4.47;;;3.00;;
37781;SDS011;23621;50.878;4.584;2022-09-20T08:41:41;5.88;;;3.42;;
37781;SDS011;23621;50.878;4.584;2022-09-20T08:44:17;4.40;;;3.15;;
37781;SDS011;23621;50.878;4.584;2022-09-20T08:47:03;7.80;;;3.47;;
37781;SDS011;23621;50.878;4.584;2022-09-20T08:49:43;7.60;;;3.60;;
37781;SDS011;23621;50.878;4.584;2022-09-20T08:52:18;5.50;;;3.00;;
37781;SDS011;23621;50.878;4.584;2022-09-20T08:54:50;5.47;;;3.70;;
37781;SDS011;23621;50.878;4.584;2022-09-20T08:57:17;5.18;;;3.95;;
37781;SDS011;23621;50.878;4.584;2022-09-20T08:59:45;6.97;;;4.18;;
37781;SDS011;23621;50.878;4.584;2022-09-20T09:02:17;5.60;;;4.10;;
37781;SDS011;23621;50.878;4.584;2022-09-20T09:04:46;6.40;;;4.72;;
37781;SDS011;23621;50.878;4.584;2022-09-20T09:07:16;8.18;;;4.43;;
37781;SDS011;23621;50.878;4.584;2022-09-20T09:09:47;7.07;;;4.93;;
37781;SDS011;23621;50.878;4.584;2022-09-20T09:12:24;5.88;;;4.55;;
37781;SDS011;23621;50.878;4.584;2022-09-20T09:17:55;7.05;;;4.43;;
37781;SDS011;23621;50.878;4.584;2022-09-20T09:20:22;7.28;;;4.35;;
37781;SDS011;23621;50.878;4.584;2022-09-20T09:23:00;6.03;;;4.38;;
37781;SDS011;23621;50.878;4.584;2022-09-20T09:25:32;6.65;;;4.45;;
37781;SDS011;23621;50.878;4.584;2022-09-20T09:30:40;6.82;;;4.70;;
37781;SDS011;23621;50.878;4.584;2022-09-20T09:35:41;4.18;;;3.78;;
37781;SDS011;23621;50.878;4.584;2022-09-20T09:38:19;13.40;;;4.63;;
37781;SDS011;23621;50.878;4.584;2022-09-20T09:40:53;5.93;;;3.50;;
37781;SDS011;23621;50.878;4.584;2022-09-20T09:43:28;7.03;;;3.80;;
37781;SDS011;23621;50.878;4.584;2022-09-20T09:46:20;6.20;;;4.07;;
37781;SDS011;23621;50.878;4.584;2022-09-20T09:51:38;6.82;;;4.07;;
37781;SDS011;23621;50.878;4.584;2022-09-20T09:54:11;6.13;;;3.40;;
37781;SDS011;23621;50.878;4.584;2022-09-20T10:02:59;4.85;;;2.60;;
37781;SDS011;23621;50.878;4.584;2022-09-20T10:08:09;5.13;;;2.67;;
37781;SDS011;23621;50.878;4.584;2022-09-20T10:14:10;5.78;;;2.63;;
37781;SDS011;23621;50.878;4.584;2022-09-20T10:22:43;5.20;;;2.50;;
37781;SDS011;23621;50.878;4.584;2022-09-20T10:28:22;2.30;;;2.10;;
37781;SDS011;23621;50.878;4.584;2022-09-20T10:39:38;4.85;;;2.15;;
37781;SDS011;23621;50.878;4.584;2022-09-20T10:48:10;1.85;;;1.75;;
37781;SDS011;23621;50.878;4.584;2022-09-20T11:04:28;2.60;;;1.83;;
37781;SDS011;23621;50.878;4.584;2022-09-20T11:07:25;2.55;;;1.90;;
37781;SDS011;23621;50.878;4.584;2022-09-20T11:10:19;2.97;;;2.03;;
37781;SDS011;23621;50.878;4.584;2022-09-20T11:12:56;3.38;;;1.98;;
37781;SDS011;23621;50.878;4.584;2022-09-20T11:21:05;4.53;;;1.83;;
37781;SDS011;23621;50.878;4.584;2022-09-20T11:23:47;2.03;;;1.30;;
37781;SDS011;23621;50.878;4.584;2022-09-20T11:26:21;1.80;;;1.20;;
37781;SDS011;23621;50.878;4.584;2022-09-20T11:29:40;3.90;;;1.50;;
37781;SDS011;23621;50.878;4.584;2022-09-20T11:32:09;3.60;;;1.35;;
37781;SDS011;23621;50.878;4.584;2022-09-20T11:34:56;1.75;;;1.10;;
37781;SDS011;23621;50.878;4.584;2022-09-20T11:37:32;1.27;;;0.90;;
37781;SDS011;23621;50.878;4.584;2022-09-20T11:40:07;2.10;;;1.10;;
37781;SDS011;23621;50.878;4.584;2022-09-20T11:42:52;2.90;;;1.20;;
37781;SDS011;23621;50.878;4.584;2022-09-20T11:45:22;1.77;;;0.98;;
37781;SDS011;23621;50.878;4.584;2022-09-20T11:47:57;2.88;;;1.55;;
37781;SDS011;23621;50.878;4.584;2022-09-20T11:56:51;2.38;;;1.13;;
37781;SDS011;23621;50.878;4.584;2022-09-20T12:01:59;3.00;;;1.02;;
37781;SDS011;23621;50.878;4.584;2022-09-20T12:04:30;2.22;;;1.08;;
37781;SDS011;23621;50.878;4.584;2022-09-20T12:07:04;1.42;;;0.95;;
37781;SDS011;23621;50.878;4.584;2022-09-20T12:09:38;1.40;;;1.10;;
37781;SDS011;23621;50.878;4.584;2022-09-20T12:12:54;3.05;;;1.33;;
37781;SDS011;23621;50.878;4.584;2022-09-20T12:15:21;2.15;;;1.58;;
37781;SDS011;23621;50.878;4.584;2022-09-20T12:28:59;4.45;;;2.25;;
37781;SDS011;23621;50.878;4.584;2022-09-20T12:34:01;1.52;;;1.40;;
37781;SDS011;23621;50.878;4.584;2022-09-20T12:36:35;1.52;;;0.95;;
37781;SDS011;23621;50.878;4.584;2022-09-20T12:44:35;2.92;;;1.02;;
37781;SDS011;23621;50.878;4.584;2022-09-20T12:52:37;3.60;;;1.67;;
37781;SDS011;23621;50.878;4.584;2022-09-20T12:57:53;2.63;;;1.27;;
37781;SDS011;23621;50.878;4.584;2022-09-20T13:00:30;1.58;;;1.30;;
37781;SDS011;23621;50.878;4.584;2022-09-20T13:05:41;2.25;;;1.00;;
37781;SDS011;23621;50.878;4.584;2022-09-20T13:08:25;1.25;;;1.00;;
37781;SDS011;23621;50.878;4.584;2022-09-20T13:11:05;2.40;;;1.05;;
37781;SDS011;23621;50.878;4.584;2022-09-20T13:13:47;2.55;;;1.20;;
37781;SDS011;23621;50.878;4.584;2022-09-20T13:16:32;2.53;;;1.30;;
37781;SDS011;23621;50.878;4.584;2022-09-20T13:19:06;3.80;;;2.08;;
37781;SDS011;23621;50.878;4.584;2022-09-20T13:21:45;1.25;;;1.10;;
37781;SDS011;23621;50.878;4.584;2022-09-20T13:24:26;1.20;;;1.15;;
37781;SDS011;23621;50.878;4.584;2022-09-20T13:26:59;2.20;;;1.70;;
37781;SDS011;23621;50.878;4.584;2022-09-20T13:29:32;1.98;;;1.45;;
37781;SDS011;23621;50.878;4.584;2022-09-20T13:32:23;2.97;;;1.63;;
37781;SDS011;23621;50.878;4.584;2022-09-20T13:40:21;2.40;;;1.08;;
37781;SDS011;23621;50.878;4.584;2022-09-20T13:42:51;1.60;;;1.20;;
37781;SDS011;23621;50.878;4.584;2022-09-20T13:45:40;1.70;;;1.40;;
37781;SDS011;23621;50.878;4.584;2022-09-20T13:48:08;2.17;;;1.40;;
37781;SDS011;23621;50.878;4.584;2022-09-20T13:50:35;2.70;;;1.42;;
37781;SDS011;23621;50.878;4.584;2022-09-20T13:53:14;3.22;;;1.90;;
37781;SDS011;23621;50.878;4.584;2022-09-20T13:56:05;10.82;;;2.33;;
37781;SDS011;23621;50.878;4.584;2022-09-20T13:59:03;4.13;;;1.70;;
37781;SDS011;23621;50.878;4.584;2022-09-20T14:01:31;1.60;;;1.50;;
37781;SDS011;23621;50.878;4.584;2022-09-20T14:04:22;5.25;;;2.20;;
37781;SDS011;23621;50.878;4.584;2022-09-20T14:06:49;7.55;;;2.17;;
37781;SDS011;23621;50.878;4.584;2022-09-20T14:11:53;3.15;;;1.90;;
37781;SDS011;23621;50.878;4.584;2022-09-20T14:14:22;2.72;;;2.00;;
37781;SDS011;23621;50.878;4.584;2022-09-20T14:16:50;2.40;;;1.60;;
37781;SDS011;23621;50.878;4.584;2022-09-20T14:19:21;3.28;;;1.73;;
37781;SDS011;23621;50.878;4.584;2022-09-20T14:21:52;2.53;;;1.95;;
37781;SDS011;23621;50.878;4.584;2022-09-20T14:24:27;2.58;;;1.60;;
37781;SDS011;23621;50.878;4.584;2022-09-20T14:26:59;3.65;;;2.00;;
37781;SDS011;23621;50.878;4.584;2022-09-20T14:29:42;2.03;;;1.30;;
37781;SDS011;23621;50.878;4.584;2022-09-20T14:32:14;5.18;;;1.80;;
37781;SDS011;23621;50.878;4.584;2022-09-20T14:35:11;5.38;;;1.40;;
37781;SDS011;23621;50.878;4.584;2022-09-20T14:37:49;2.72;;;1.10;;
37781;SDS011;23621;50.878;4.584;2022-09-20T14:50:37;3.05;;;1.27;;
37781;SDS011;23621;50.878;4.584;2022-09-20T14:55:38;1.90;;;1.20;;
37781;SDS011;23621;50.878;4.584;2022-09-20T14:58:19;1.58;;;1.10;;
37781;SDS011;23621;50.878;4.584;2022-09-20T15:00:47;1.83;;;1.08;;
37781;SDS011;23621;50.878;4.584;2022-09-20T15:03:21;2.92;;;1.15;;
37781;SDS011;23621;50.878;4.584;2022-09-20T15:05:51;2.13;;;1.10;;
37781;SDS011;23621;50.878;4.584;2022-09-20T15:08:18;1.70;;;1.10;;
37781;SDS011;23621;50.878;4.584;2022-09-20T15:10:45;1.05;;;0.95;;
37781;SDS011;23621;50.878;4.584;2022-09-20T15:13:13;3.13;;;1.00;;
37781;SDS011;23621;50.878;4.584;2022-09-20T15:15:40;3.63;;;1.13;;
37781;SDS011;23621;50.878;4.584;2022-09-20T15:18:17;3.65;;;1.20;;
37781;SDS011;23621;50.878;4.584;2022-09-20T15:20:51;1.95;;;1.30;;
37781;SDS011;23621;50.878;4.584;2022-09-20T15:23:19;2.47;;;1.15;;
37781;SDS011;23621;50.878;4.584;2022-09-20T15:25:50;3.70;;;1.27;;
37781;SDS011;23621;50.878;4.584;2022-09-20T15:28:18;2.65;;;1.20;;
37781;SDS011;23621;50.878;4.584;2022-09-20T15:30:47;1.35;;;1.15;;
37781;SDS011;23621;50.878;4.584;2022-09-20T15:33:18;2.15;;;1.00;;
37781;SDS011;23621;50.878;4.584;2022-09-20T15:35:47;2.22;;;1.30;;
37781;SDS011;23621;50.878;4.584;2022-09-20T15:38:15;2.22;;;1.50;;
37781;SDS011;23621;50.878;4.584;2022-09-20T15:40:44;1.48;;;1.38;;
37781;SDS011;23621;50.878;4.584;2022-09-20T15:43:14;2.03;;;1.60;;
37781;SDS011;23621;50.878;4.584;2022-09-20T15:45:47;2.20;;;1.30;;
37781;SDS011;23621;50.878;4.584;2022-09-20T15:48:18;2.45;;;1.20;;
37781;SDS011;23621;50.878;4.584;2022-09-20T15:53:31;1.73;;;1.40;;
37781;SDS011;23621;50.878;4.584;2022-09-20T15:56:19;2.65;;;1.52;;
37781;SDS011;23621;50.878;4.584;2022-09-20T15:58:48;2.50;;;1.20;;
37781;SDS011;23621;50.878;4.584;2022-09-20T16:01:27;3.03;;;1.20;;
37781;SDS011;23621;50.878;4.584;2022-09-20T16:04:03;2.60;;;1.10;;
37781;SDS011;23621;50.878;4.584;2022-09-20T16:06:32;1.65;;;1.35;;
37781;SDS011;23621;50.878;4.584;2022-09-20T16:08:59;3.22;;;1.50;;
37781;SDS011;23621;50.878;4.584;2022-09-20T16:11:29;1.25;;;1.15;;
37781;SDS011;23621;50.878;4.584;2022-09-20T16:13:56;2.75;;;1.40;;
37781;SDS011;23621;50.878;4.584;2022-09-20T16:16:25;2.00;;;1.60;;
37781;SDS011;23621;50.878;4.584;2022-09-20T16:18:53;2.53;;;1.40;;
37781;SDS011;23621;50.878;4.584;2022-09-20T16:21:39;2.85;;;1.20;;
37781;SDS011;23621;50.878;4.584;2022-09-20T16:24:07;1.27;;;1.17;;
37781;SDS011;23621;50.878;4.584;2022-09-20T16:26:35;1.70;;;1.17;;
37781;SDS011;23621;50.878;4.584;2022-09-20T16:29:02;2.55;;;1.52;;
37781;SDS011;23621;50.878;4.584;2022-09-20T16:31:31;1.42;;;1.23;;
37781;SDS011;23621;50.878;4.584;2022-09-20T16:36:58;2.13;;;1.30;;
37781;SDS011;23621;50.878;4.584;2022-09-20T16:39:25;3.50;;;1.38;;
37781;SDS011;23621;50.878;4.584;2022-09-20T16:41:54;3.45;;;1.40;;
37781;SDS011;23621;50.878;4.584;2022-09-20T16:44:22;1.50;;;1.40;;
37781;SDS011;23621;50.878;4.584;2022-09-20T16:46:49;2.17;;;1.40;;
37781;SDS011;23621;50.878;4.584;2022-09-20T16:49:16;2.65;;;1.70;;
37781;SDS011;23621;50.878;4.584;2022-09-20T16:51:43;2.05;;;1.27;;
37781;SDS011;23621;50.878;4.584;2022-09-20T16:54:14;2.53;;;1.50;;
37781;SDS011;23621;50.878;4.584;2022-09-20T16:56:43;1.67;;;1.35;;
37781;SDS011;23621;50.878;4.584;2022-09-20T16:59:12;5.03;;;1.70;;
37781;SDS011;23621;50.878;4.584;2022-09-20T17:01:41;3.25;;;1.55;;
37781;SDS011;23621;50.878;4.584;2022-09-20T17:04:11;1.60;;;1.20;;
37781;SDS011;23621;50.878;4.584;2022-09-20T17:06:43;2.47;;;1.50;;
37781;SDS011;23621;50.878;4.584;2022-09-20T17:09:12;2.88;;;1.48;;
37781;SDS011;23621;50.878;4.584;2022-09-20T17:11:40;2.00;;;1.40;;
37781;SDS011;23621;50.878;4.584;2022-09-20T17:14:11;3.85;;;1.77;;
37781;SDS011;23621;50.878;4.584;2022-09-20T17:16:39;2.10;;;1.33;;
37781;SDS011;23621;50.878;4.584;2022-09-20T17:19:11;1.45;;;1.33;;
37781;SDS011;23621;50.878;4.584;2022-09-20T17:21:40;2.00;;;1.60;;
37781;SDS011;23621;50.878;4.584;2022-09-20T17:24:10;2.45;;;1.48;;
37781;SDS011;23621;50.878;4.584;2022-09-20T17:26:39;2.45;;;1.80;;
37781;SDS011;23621;50.878;4.584;2022-09-20T17:29:10;2.50;;;1.33;;
37781;SDS011;23621;50.878;4.584;2022-09-20T17:31:42;1.95;;;1.50;;
37781;SDS011;23621;50.878;4.584;2022-09-20T17:34:19;2.72;;;1.50;;
37781;SDS011;23621;50.878;4.584;2022-09-20T17:36:47;2.22;;;1.73;;
37781;SDS011;23621;50.878;4.584;2022-09-20T17:39:15;1.85;;;1.73;;
37781;SDS011;23621;50.878;4.584;2022-09-20T17:41:43;2.80;;;1.50;;
37781;SDS011;23621;50.878;4.584;2022-09-20T17:44:15;1.60;;;1.50;;
37781;SDS011;23621;50.878;4.584;2022-09-20T17:46:43;2.03;;;1.50;;
37781;SDS011;23621;50.878;4.584;2022-09-20T17:49:12;1.70;;;1.60;;
37781;SDS011;23621;50.878;4.584;2022-09-20T17:51:42;2.08;;;1.85;;
37781;SDS011;23621;50.878;4.584;2022-09-20T17:54:10;2.40;;;1.67;;
37781;SDS011;23621;50.878;4.584;2022-09-20T17:56:41;2.80;;;1.40;;
37781;SDS011;23621;50.878;4.584;2022-09-20T17:59:10;3.00;;;2.00;;
37781;SDS011;23621;50.878;4.584;2022-09-20T18:01:38;2.90;;;1.63;;
37781;SDS011;23621;50.878;4.584;2022-09-20T18:04:06;2.85;;;1.50;;
37781;SDS011;23621;50.878;4.584;2022-09-20T18:06:38;2.95;;;2.00;;
37781;SDS011;23621;50.878;4.584;2022-09-20T18:09:10;2.40;;;2.10;;
37781;SDS011;23621;50.878;4.584;2022-09-20T18:11:41;2.92;;;2.70;;
37781;SDS011;23621;50.878;4.584;2022-09-20T18:14:14;2.80;;;2.60;;
37781;SDS011;23621;50.878;4.584;2022-09-20T18:16:46;3.97;;;2.80;;
37781;SDS011;23621;50.878;4.584;2022-09-20T18:19:13;4.15;;;2.90;;
37781;SDS011;23621;50.878;4.584;2022-09-20T18:21:41;3.58;;;2.60;;
37781;SDS011;23621;50.878;4.584;2022-09-20T18:24:09;4.43;;;2.65;;
37781;SDS011;23621;50.878;4.584;2022-09-20T18:26:36;3.95;;;2.47;;
37781;SDS011;23621;50.878;4.584;2022-09-20T18:29:08;3.20;;;2.35;;
37781;SDS011;23621;50.878;4.584;2022-09-20T18:31:46;4.75;;;2.30;;
37781;SDS011;23621;50.878;4.584;2022-09-20T18:34:18;3.97;;;2.40;;
37781;SDS011;23621;50.878;4.584;2022-09-20T18:36:51;4.88;;;2.33;;
37781;SDS011;23621;50.878;4.584;2022-09-20T18:39:23;2.63;;;2.10;;
37781;SDS011;23621;50.878;4.584;2022-09-20T18:41:52;3.17;;;2.42;;
37781;SDS011;23621;50.878;4.584;2022-09-20T18:44:20;2.13;;;2.03;;
37781;SDS011;23621;50.878;4.584;2022-09-20T18:46:48;2.35;;;1.83;;
37781;SDS011;23621;50.878;4.584;2022-09-20T18:49:17;3.55;;;2.53;;
37781;SDS011;23621;50.878;4.584;2022-09-20T18:51:46;3.00;;;2.20;;
37781;SDS011;23621;50.878;4.584;2022-09-20T18:54:14;4.32;;;2.47;;
37781;SDS011;23621;50.878;4.584;2022-09-20T18:56:42;2.58;;;2.30;;
37781;SDS011;23621;50.878;4.584;2022-09-20T18:59:14;2.25;;;2.03;;
37781;SDS011;23621;50.878;4.584;2022-09-20T19:07:23;2.47;;;2.22;;
37781;SDS011;23621;50.878;4.584;2022-09-20T19:21:34;3.92;;;2.90;;
37781;SDS011;23621;50.878;4.584;2022-09-20T19:26:44;3.45;;;3.00;;
37781;SDS011;23621;50.878;4.584;2022-09-20T19:29:18;4.28;;;2.85;;
37781;SDS011;23621;50.878;4.584;2022-09-20T19:31:47;3.00;;;2.70;;
37781;SDS011;23621;50.878;4.584;2022-09-20T19:34:20;2.88;;;2.65;;
37781;SDS011;23621;50.878;4.584;2022-09-20T19:36:53;3.25;;;2.50;;
37781;SDS011;23621;50.878;4.584;2022-09-20T19:48:00;4.30;;;2.88;;
37781;SDS011;23621;50.878;4.584;2022-09-20T19:50:34;3.75;;;2.83;;
37781;SDS011;23621;50.878;4.584;2022-09-20T19:53:14;3.80;;;3.00;;
37781;SDS011;23621;50.878;4.584;2022-09-20T19:55:45;3.42;;;2.92;;
37781;SDS011;23621;50.878;4.584;2022-09-20T19:58:13;5.63;;;3.28;;
37781;SDS011;23621;50.878;4.584;2022-09-20T20:00:44;3.33;;;3.03;;
37781;SDS011;23621;50.878;4.584;2022-09-20T20:03:12;3.90;;;3.40;;
37781;SDS011;23621;50.878;4.584;2022-09-20T20:05:41;3.90;;;3.50;;
37781;SDS011;23621;50.878;4.584;2022-09-20T20:08:20;4.43;;;3.65;;
37781;SDS011;23621;50.878;4.584;2022-09-20T20:11:19;3.80;;;3.40;;
37781;SDS011;23621;50.878;4.584;2022-09-20T20:14:12;6.65;;;4.03;;
37781;SDS011;23621;50.878;4.584;2022-09-20T20:17:04;3.78;;;3.40;;
37781;SDS011;23621;50.878;4.584;2022-09-20T20:28:33;4.85;;;3.45;;
37781;SDS011;23621;50.878;4.584;2022-09-20T20:31:01;4.40;;;3.53;;
37781;SDS011;23621;50.878;4.584;2022-09-20T20:33:29;4.03;;;3.40;;
37781;SDS011;23621;50.878;4.584;2022-09-20T20:35:59;4.05;;;3.30;;
37781;SDS011;23621;50.878;4.584;2022-09-20T20:38:27;3.80;;;3.40;;
37781;SDS011;23621;50.878;4.584;2022-09-20T20:43:32;3.78;;;3.40;;
37781;SDS011;23621;50.878;4.584;2022-09-20T20:46:02;4.78;;;3.78;;
37781;SDS011;23621;50.878;4.584;2022-09-20T20:48:30;4.28;;;3.40;;
37781;SDS011;23621;50.878;4.584;2022-09-20T20:51:04;3.60;;;3.30;;
37781;SDS011;23621;50.878;4.584;2022-09-20T20:53:36;3.70;;;3.25;;
37781;SDS011;23621;50.878;4.584;2022-09-20T20:56:05;3.63;;;3.33;;
37781;SDS011;23621;50.878;4.584;2022-09-20T20:58:35;5.75;;;3.30;;
37781;SDS011;23621;50.878;4.584;2022-09-20T21:01:09;4.28;;;3.53;;
37781;SDS011;23621;50.878;4.584;2022-09-20T21:03:47;3.65;;;3.35;;
37781;SDS011;23621;50.878;4.584;2022-09-20T21:06:17;5.22;;;3.63;;
37781;SDS011;23621;50.878;4.584;2022-09-20T21:08:46;5.03;;;3.60;;
37781;SDS011;23621;50.878;4.584;2022-09-20T21:11:22;4.30;;;3.60;;
37781;SDS011;23621;50.878;4.584;2022-09-20T21:13:55;5.53;;;3.42;;
37781;SDS011;23621;50.878;4.584;2022-09-20T21:16:23;3.40;;;3.10;;
37781;SDS011;23621;50.878;4.584;2022-09-20T21:18:55;5.03;;;3.08;;
37781;SDS011;23621;50.878;4.584;2022-09-20T21:23:56;4.00;;;2.90;;
37781;SDS011;23621;50.878;4.584;2022-09-20T21:26:25;5.47;;;3.00;;
37781;SDS011;23621;50.878;4.584;2022-09-20T21:28:54;4.18;;;3.47;;